createdAt,value
2022-09-15T00:00:21.328Z,16.83
2022-09-15T00:03:24.058Z,15.40
2022-09-15T00:06:25.693Z,15.43
2022-09-15T00:09:27.382Z,14.90
2022-09-15T00:12:29.267Z,15.67
2022-09-15T00:15:30.993Z,16.50
2022-09-15T00:18:32.844Z,13.53
2022-09-15T00:21:37.495Z,13.93
2022-09-15T00:24:39.238Z,16.30
2022-09-15T00:27:43.789Z,14.50
2022-09-15T00:30:48.024Z,13.87
2022-09-15T00:33:51.897Z,14.23
2022-09-15T00:36:53.625Z,18.23
2022-09-15T00:39:55.271Z,14.40
2022-09-15T00:42:56.904Z,14.30
2022-09-15T00:45:58.602Z,14.10
2022-09-15T00:49:05.364Z,15.20
2022-09-15T00:52:22.335Z,13.87
2022-09-15T00:55:50.682Z,29.90
2022-09-15T00:58:58.912Z,15.27
2022-09-15T01:02:09.707Z,14.17
2022-09-15T01:05:14.869Z,14.03
2022-09-15T01:08:22.307Z,12.80
2022-09-15T01:11:24.685Z,14.43
2022-09-15T01:14:26.289Z,13.07
2022-09-15T01:17:42.879Z,20.60
2022-09-15T01:21:07.297Z,13.80
2022-09-15T01:24:51.132Z,13.73
2022-09-15T01:28:16.901Z,14.37
2022-09-15T01:31:30.428Z,15.47
2022-09-15T01:34:45.056Z,14.20
2022-09-15T01:37:57.592Z,18.53
2022-09-15T01:41:16.769Z,18.50
2022-09-15T01:44:47.758Z,16.47
2022-09-15T01:47:54.611Z,15.03
2022-09-15T01:51:00.335Z,17.37
2022-09-15T01:54:04.191Z,16.93
2022-09-15T01:57:05.877Z,18.33
2022-09-15T02:00:08.540Z,18.33
2022-09-15T02:03:34.968Z,18.60
2022-09-15T02:06:55.243Z,18.70
2022-09-15T02:10:30.789Z,19.13
2022-09-15T02:14:11.219Z,20.50
2022-09-15T02:17:17.109Z,24.03
2022-09-15T02:20:26.230Z,21.73
2022-09-15T02:23:32.765Z,22.23
2022-09-15T02:26:38.264Z,22.40
2022-09-15T02:29:41.447Z,21.43
2022-09-15T02:32:57.749Z,24.60
2022-09-15T02:36:00.049Z,24.03
2022-09-15T02:39:07.132Z,25.80
2022-09-15T02:42:10.480Z,23.57
2022-09-15T02:45:12.142Z,22.63
2022-09-15T02:48:13.937Z,22.73
2022-09-15T02:51:18.086Z,28.83
2022-09-15T02:54:19.977Z,23.00
2022-09-15T02:57:21.649Z,23.53
2022-09-15T03:00:23.825Z,24.57
2022-09-15T03:03:25.448Z,24.53
2022-09-15T03:06:30.732Z,25.07
2022-09-15T03:09:32.317Z,24.33
2022-09-15T03:12:41.539Z,23.50
2022-09-15T03:15:45.623Z,23.70
2022-09-15T03:18:48.239Z,24.73
2022-09-15T03:21:49.846Z,27.50
2022-09-15T03:24:51.762Z,26.77
2022-09-15T03:27:53.341Z,25.33
2022-09-15T03:30:55.434Z,24.53
2022-09-15T03:33:58.067Z,23.80
2022-09-15T03:36:59.684Z,25.87
2022-09-15T03:40:01.604Z,27.77
2022-09-15T03:43:03.473Z,28.37
2022-09-15T03:46:11.406Z,29.57
2022-09-15T03:49:13.268Z,25.90
2022-09-15T03:52:14.896Z,25.90
2022-09-15T03:55:17.081Z,30.17
2022-09-15T03:58:19.212Z,26.10
2022-09-15T04:01:21.254Z,24.90
2022-09-15T04:04:22.972Z,28.67
2022-09-15T04:07:24.998Z,26.83
2022-09-15T04:10:26.799Z,29.47
2022-09-15T04:13:28.849Z,27.43
2022-09-15T04:16:30.544Z,29.53
2022-09-15T04:19:32.211Z,32.83
2022-09-15T04:22:34.254Z,31.10
2022-09-15T04:25:37.408Z,27.67
2022-09-15T04:28:39.074Z,29.30
2022-09-15T04:31:40.868Z,31.63
2022-09-15T04:34:42.581Z,30.57
2022-09-15T04:37:44.561Z,33.27
2022-09-15T04:40:46.182Z,35.07
2022-09-15T04:44:04.234Z,30.43
2022-09-15T04:47:07.125Z,32.63
2022-09-15T04:50:09.096Z,32.73
2022-09-15T04:53:10.710Z,34.23
2022-09-15T04:56:15.096Z,32.93
2022-09-15T04:59:18.827Z,33.13
2022-09-15T05:02:20.545Z,34.63
2022-09-15T05:05:23.037Z,32.87
2022-09-15T05:08:24.661Z,31.87
2022-09-15T05:11:28.125Z,31.40
2022-09-15T05:14:29.955Z,34.67
2022-09-15T05:17:32.536Z,35.30
2022-09-15T05:20:34.322Z,32.30
2022-09-15T05:23:37.033Z,33.47
2022-09-15T05:26:38.676Z,29.93
2022-09-15T05:29:40.288Z,30.90
2022-09-15T05:32:47.893Z,30.43
2022-09-15T05:35:58.029Z,33.53
2022-09-15T05:39:00.165Z,31.00
2022-09-15T05:42:01.828Z,25.23
2022-09-15T05:45:03.660Z,28.57
2022-09-15T05:48:05.649Z,32.33
2022-09-15T05:51:07.892Z,25.77
2022-09-15T05:54:09.517Z,29.03
2022-09-15T05:57:11.377Z,29.20
2022-09-15T06:00:13.426Z,26.93
2022-09-15T06:03:16.451Z,26.97
2022-09-15T06:06:18.849Z,24.73
2022-09-15T06:09:20.512Z,22.87
2022-09-15T06:12:22.134Z,27.60
2022-09-15T06:15:24.714Z,28.37
2022-09-15T06:18:26.309Z,33.60
2022-09-15T06:21:29.723Z,27.23
2022-09-15T06:24:31.392Z,29.47
2022-09-15T06:27:33.241Z,24.20
2022-09-15T06:30:34.821Z,24.37
2022-09-15T06:33:36.477Z,22.53
2022-09-15T06:36:39.010Z,27.70
2022-09-15T06:39:40.721Z,27.63
2022-09-15T06:42:42.314Z,22.97
2022-09-15T06:45:46.955Z,24.37
2022-09-15T06:48:49.356Z,27.70
2022-09-15T06:51:50.948Z,25.73
2022-09-15T06:54:52.777Z,27.70
2022-09-15T06:57:54.357Z,23.83
2022-09-15T07:01:01.537Z,27.10
2022-09-15T07:04:06.529Z,27.63
2022-09-15T07:07:08.500Z,24.90
2022-09-15T07:10:10.141Z,22.70
2022-09-15T07:13:12.020Z,27.30
2022-09-15T07:16:14.086Z,26.77
2022-09-15T07:19:15.798Z,28.00
2022-09-15T07:22:17.385Z,25.77
2022-09-15T07:25:18.983Z,29.20
2022-09-15T07:28:20.584Z,23.03
2022-09-15T07:31:24.620Z,28.27
2022-09-15T07:34:26.321Z,27.57
2022-09-15T07:37:27.937Z,24.87
2022-09-15T07:40:29.576Z,24.27
2022-09-15T07:43:31.685Z,25.27
2022-09-15T07:46:33.664Z,22.27
2022-09-15T07:49:35.457Z,23.17
2022-09-15T07:52:37.044Z,21.03
2022-09-15T07:55:38.636Z,23.07
2022-09-15T07:58:40.514Z,22.03
2022-09-15T08:01:44.368Z,23.57
2022-09-15T08:04:46.458Z,21.23
2022-09-15T08:07:48.120Z,21.07
2022-09-15T08:10:49.714Z,21.43
2022-09-15T08:13:52.420Z,21.03
2022-09-15T08:16:54.084Z,22.73
2022-09-15T08:19:55.798Z,19.63
2022-09-15T08:22:57.456Z,19.93
2022-09-15T08:25:59.440Z,21.70
2022-09-15T08:29:01.128Z,21.27
2022-09-15T08:32:03.199Z,20.33
2022-09-15T08:35:07.477Z,21.03
2022-09-15T08:38:09.048Z,25.83
2022-09-15T08:41:20.044Z,19.47
2022-09-15T08:44:40.701Z,20.77
2022-09-15T08:47:46.940Z,19.97
2022-09-15T08:50:52.299Z,19.40
2022-09-15T08:54:00.317Z,18.20
2022-09-15T08:57:05.605Z,21.07
2022-09-15T09:00:14.806Z,19.33
2022-09-15T09:03:23.424Z,17.17
2022-09-15T09:06:44.473Z,19.27
2022-09-15T09:10:28.891Z,17.87
2022-09-15T09:13:36.969Z,17.30
2022-09-15T09:17:14.612Z,16.60
2022-09-15T09:20:34.508Z,17.70
2022-09-15T09:23:46.646Z,16.70
2022-09-15T09:26:51.608Z,16.50
2022-09-15T09:30:12.497Z,14.57
2022-09-15T09:34:01.897Z,14.30
2022-09-15T09:37:13.396Z,12.87
2022-09-15T09:40:18.828Z,11.20
2022-09-15T09:43:33.144Z,9.43
2022-09-15T09:46:35.014Z,10.47
2022-09-15T09:49:46.253Z,10.70
2022-09-15T09:52:47.848Z,11.60
2022-09-15T09:55:49.501Z,9.27
2022-09-15T09:58:52.068Z,12.00
2022-09-15T10:02:12.076Z,10.93
2022-09-15T10:05:20.793Z,8.23
2022-09-15T10:08:23.449Z,9.77
2022-09-15T10:11:57.430Z,9.73
2022-09-15T10:15:05.142Z,8.97
2022-09-15T10:18:07.618Z,8.83
2022-09-15T10:21:09.972Z,11.30
2022-09-15T10:24:44.268Z,7.57
2022-09-15T10:28:22.941Z,7.23
2022-09-15T10:31:31.875Z,7.47
2022-09-15T10:34:33.496Z,7.37
2022-09-15T10:37:45.185Z,5.57
2022-09-15T10:40:57.203Z,5.77
2022-09-15T10:44:28.646Z,4.57
2022-09-15T10:48:07.019Z,5.90
2022-09-15T10:51:34.537Z,3.10
2022-09-15T10:55:03.653Z,3.50
2022-09-15T10:58:23.327Z,5.67
2022-09-15T11:01:40.735Z,2.80
2022-09-15T11:04:50.563Z,3.23
2022-09-15T11:08:08.553Z,3.97
2022-09-15T11:11:48.308Z,7.33
2022-09-15T11:15:24.013Z,4.10
2022-09-15T11:18:44.613Z,4.17
2022-09-15T11:21:52.549Z,5.10
2022-09-15T11:25:13.245Z,6.63
2022-09-15T11:28:30.538Z,7.63
2022-09-15T11:31:41.978Z,5.33
2022-09-15T11:35:19.857Z,3.70
2022-09-15T11:38:40.517Z,3.77
2022-09-15T11:41:45.712Z,4.90
2022-09-15T11:44:49.379Z,4.50
2022-09-15T11:47:56.334Z,6.03
2022-09-15T11:51:01.669Z,2.10
2022-09-15T11:54:13.529Z,4.13
2022-09-15T11:57:21.082Z,3.63
2022-09-15T12:00:22.761Z,2.80
2022-09-15T12:03:45.724Z,3.00
2022-09-15T12:10:21.694Z,4.67
2022-09-15T12:13:25.446Z,4.17
2022-09-15T12:16:28.177Z,2.43
2022-09-15T12:19:33.415Z,2.63
2022-09-15T12:22:44.918Z,4.07
2022-09-15T12:26:09.048Z,1.60
2022-09-15T12:29:25.964Z,3.43
2022-09-15T12:32:33.164Z,2.53
2022-09-15T12:35:34.906Z,6.43
2022-09-15T12:38:36.539Z,5.17
2022-09-15T12:41:47.323Z,3.20
2022-09-15T12:45:07.928Z,3.97
2022-09-15T12:48:15.420Z,6.07
2022-09-15T12:51:27.913Z,5.83
2022-09-15T12:54:33.119Z,4.80
2022-09-15T12:57:36.862Z,5.80
2022-09-15T13:00:49.962Z,6.27
2022-09-15T13:04:02.032Z,6.40
2022-09-15T13:07:18.426Z,3.43
2022-09-15T13:10:36.542Z,3.80
2022-09-15T13:13:52.413Z,4.37
2022-09-15T13:17:50.261Z,6.87
2022-09-15T13:21:04.708Z,6.13
2022-09-15T13:24:19.837Z,7.07
2022-09-15T13:27:25.940Z,5.13
2022-09-15T13:30:50.293Z,4.03
2022-09-15T13:38:07.997Z,5.97
2022-09-15T13:41:54.605Z,5.97
2022-09-15T13:45:27.094Z,4.77
2022-09-15T13:48:29.137Z,7.37
2022-09-15T13:51:33.298Z,3.73
2022-09-15T13:54:35.174Z,4.40
2022-09-15T14:01:07.432Z,4.03
2022-09-15T14:04:19.158Z,3.63
2022-09-15T14:07:24.687Z,2.80
2022-09-15T14:10:31.629Z,4.23
2022-09-15T14:13:36.386Z,4.30
2022-09-15T14:16:39.116Z,4.67
2022-09-15T14:19:42.481Z,2.50
2022-09-15T14:22:50.745Z,4.90
2022-09-15T14:25:52.494Z,3.77
2022-09-15T14:28:59.579Z,3.43
2022-09-15T14:32:03.677Z,2.67
2022-09-15T14:35:09.265Z,2.63
2022-09-15T14:38:22.573Z,3.83
2022-09-15T14:41:24.312Z,2.43
2022-09-15T14:48:01.292Z,2.37
2022-09-15T14:51:08.545Z,2.70
2022-09-15T14:54:37.094Z,3.37
2022-09-15T15:00:59.630Z,2.83
2022-09-15T15:04:21.460Z,4.27
2022-09-15T15:07:29.264Z,3.57
2022-09-15T15:10:35.723Z,2.97
2022-09-15T15:13:42.665Z,3.23
2022-09-15T15:16:59.389Z,3.17
2022-09-15T15:20:31.263Z,2.83
2022-09-15T15:23:33.001Z,1.87
2022-09-15T15:26:37.159Z,1.50
2022-09-15T15:29:46.904Z,3.87
2022-09-15T15:32:51.838Z,4.60
2022-09-15T15:36:05.497Z,4.50
2022-09-15T15:39:19.353Z,2.83
2022-09-15T15:42:21.548Z,2.00
2022-09-15T15:45:28.031Z,2.50
2022-09-15T15:48:38.671Z,1.00
2022-09-15T15:51:40.801Z,2.90
2022-09-15T15:54:43.042Z,3.30
2022-09-15T15:57:47.728Z,1.90
2022-09-15T16:00:51.643Z,2.60
2022-09-15T16:03:53.423Z,3.37
2022-09-15T16:06:55.029Z,2.20
2022-09-15T16:09:56.771Z,2.67
2022-09-15T16:12:58.364Z,3.17
2022-09-15T16:16:01.152Z,1.70
2022-09-15T16:19:02.920Z,1.77
2022-09-15T16:22:04.645Z,1.47
2022-09-15T16:25:18.653Z,2.63
2022-09-15T16:28:20.275Z,4.07
2022-09-15T16:31:21.936Z,1.40
2022-09-15T16:34:23.640Z,2.97
2022-09-15T16:37:47.300Z,1.37
2022-09-15T16:40:51.006Z,3.07
2022-09-15T16:43:56.162Z,1.97
2022-09-15T16:46:57.877Z,0.97
2022-09-15T16:49:59.519Z,2.57
2022-09-15T16:53:01.145Z,1.50
2022-09-15T16:56:03.332Z,1.23
2022-09-15T16:59:05.083Z,2.77
2022-09-15T17:02:33.297Z,1.87
2022-09-15T17:05:43.048Z,1.50
2022-09-15T17:08:46.827Z,2.53
2022-09-15T17:11:48.687Z,1.90
2022-09-15T17:14:53.398Z,1.27
2022-09-15T17:18:13.334Z,2.13
2022-09-15T17:21:16.807Z,2.10
2022-09-15T17:24:18.392Z,2.13
2022-09-15T17:27:20.007Z,2.50
2022-09-15T17:30:26.384Z,3.57
2022-09-15T17:33:29.494Z,3.13
2022-09-15T17:40:17.738Z,1.20
2022-09-15T17:43:25.202Z,2.40
2022-09-15T17:46:26.869Z,2.83
2022-09-15T17:49:28.659Z,2.07
2022-09-15T17:52:31.576Z,3.60
2022-09-15T17:55:34.328Z,2.90
2022-09-15T17:58:35.934Z,2.90
2022-09-15T18:01:37.602Z,1.80
2022-09-15T18:04:39.236Z,3.60
2022-09-15T18:07:41.670Z,4.87
2022-09-15T18:10:43.761Z,3.33
2022-09-15T18:13:45.381Z,1.93
2022-09-15T18:16:47.569Z,3.33
2022-09-15T18:19:50.457Z,2.20
2022-09-15T18:22:52.748Z,3.30
2022-09-15T18:25:54.581Z,4.73
2022-09-15T18:28:56.871Z,3.47
2022-09-15T18:32:00.225Z,3.63
2022-09-15T18:35:01.893Z,2.43
2022-09-15T18:38:16.291Z,2.80
2022-09-15T18:41:18.452Z,3.57
2022-09-15T18:48:44.738Z,3.23
2022-09-15T18:51:53.429Z,5.97
2022-09-15T18:54:59.530Z,3.57
2022-09-15T18:58:01.471Z,2.20
2022-09-15T19:01:04.195Z,5.70
2022-09-15T19:04:05.808Z,2.20
2022-09-15T19:07:08.456Z,3.13
2022-09-15T19:10:11.978Z,2.57
2022-09-15T19:13:15.489Z,1.90
2022-09-15T19:16:18.334Z,2.40
2022-09-15T19:19:23.140Z,2.73
2022-09-15T19:22:24.781Z,4.90
2022-09-15T19:25:26.384Z,1.97
2022-09-15T19:28:27.980Z,4.40
2022-09-15T19:31:30.099Z,5.93
2022-09-15T19:34:32.215Z,2.50
2022-09-15T19:37:37.898Z,3.27
2022-09-15T19:40:39.561Z,2.00
2022-09-15T19:43:41.344Z,3.40
2022-09-15T19:46:45.650Z,2.50
2022-09-15T19:49:47.459Z,8.27
2022-09-15T19:52:49.089Z,6.97
2022-09-15T19:55:51.480Z,3.30
2022-09-15T19:58:55.931Z,1.97
2022-09-15T20:01:57.815Z,2.50
2022-09-15T20:04:59.588Z,3.70
2022-09-15T20:08:02.022Z,2.60
2022-09-15T20:11:07.912Z,2.90
2022-09-15T20:14:09.596Z,2.67
2022-09-15T20:17:18.643Z,2.73
2022-09-15T20:20:22.826Z,16.57
2022-09-15T20:23:24.456Z,8.83
2022-09-15T20:26:26.696Z,7.73
2022-09-15T20:29:28.728Z,7.33
2022-09-15T20:32:33.104Z,3.77
2022-09-15T20:35:34.685Z,3.37
2022-09-15T20:38:37.404Z,4.00
2022-09-15T20:41:39.996Z,4.23
2022-09-15T20:44:41.576Z,4.17
2022-09-15T20:47:43.192Z,3.27
2022-09-15T20:50:44.774Z,6.07
2022-09-15T20:53:48.816Z,5.23
2022-09-15T20:56:50.455Z,5.03
2022-09-15T20:59:52.038Z,2.20
2022-09-15T21:02:53.667Z,4.30
2022-09-15T21:06:03.960Z,8.57
2022-09-15T21:09:06.283Z,4.00
2022-09-15T21:12:08.085Z,4.00
2022-09-15T21:15:10.255Z,3.27
2022-09-15T21:18:11.840Z,5.10
2022-09-15T21:21:16.152Z,5.00
2022-09-15T21:24:17.781Z,2.70
2022-09-15T21:27:28.715Z,3.47
2022-09-15T21:30:30.287Z,4.70
2022-09-15T21:33:32.204Z,10.77
2022-09-15T21:36:33.920Z,4.33
2022-09-15T21:39:35.563Z,6.33
2022-09-15T21:42:37.150Z,4.80
2022-09-15T21:45:38.811Z,3.10
2022-09-15T21:48:40.915Z,5.07
2022-09-15T21:51:42.686Z,3.10
2022-09-15T21:54:44.422Z,3.57
2022-09-15T21:57:46.072Z,2.77
2022-09-15T22:00:49.256Z,5.43
2022-09-15T22:04:01.836Z,6.23
2022-09-15T22:07:04.355Z,6.27
2022-09-15T22:10:06.330Z,3.17
2022-09-15T22:13:09.943Z,7.97
2022-09-15T22:16:36.638Z,3.67
2022-09-15T22:19:38.307Z,7.40
2022-09-15T22:22:40.501Z,9.57
2022-09-15T22:25:42.113Z,7.37
2022-09-15T22:28:47.150Z,8.40
2022-09-15T22:31:48.863Z,5.03
2022-09-15T22:34:50.494Z,5.47
2022-09-15T22:37:52.115Z,3.30
2022-09-15T22:40:53.939Z,2.33
2022-09-15T22:43:55.867Z,6.50
2022-09-15T22:46:57.534Z,2.93
2022-09-15T22:49:59.281Z,3.07
2022-09-15T22:53:00.898Z,3.47
2022-09-15T22:56:14.582Z,3.43
2022-09-15T22:59:16.952Z,2.80
2022-09-15T23:02:18.622Z,3.17
2022-09-15T23:05:20.281Z,3.63
2022-09-15T23:08:21.934Z,2.90
2022-09-15T23:11:24.580Z,2.10
2022-09-15T23:14:26.309Z,2.13
2022-09-15T23:17:27.961Z,3.07
2022-09-15T23:20:29.609Z,6.77
2022-09-15T23:23:31.276Z,1.50
2022-09-15T23:26:32.993Z,4.37
2022-09-15T23:29:34.654Z,2.07
2022-09-15T23:32:36.915Z,1.47
2022-09-15T23:35:38.541Z,2.47
2022-09-15T23:38:42.101Z,3.93
2022-09-15T23:41:43.840Z,3.20
2022-09-15T23:44:45.487Z,1.83
2022-09-15T23:47:47.160Z,4.90
2022-09-15T23:50:48.871Z,4.20
2022-09-15T23:53:50.661Z,1.90
2022-09-15T23:56:52.481Z,2.63
2022-09-15T23:59:54.120Z,3.97
